createdAt,value
2023-08-12T00:00:37.978Z,18.46
2023-08-12T00:03:06.013Z,18.46
2023-08-12T00:05:34.284Z,18.45
2023-08-12T00:08:02.131Z,18.46
2023-08-12T00:10:30.240Z,18.47
2023-08-12T00:12:58.297Z,18.50
2023-08-12T00:15:26.453Z,18.54
2023-08-12T00:17:54.596Z,18.59
2023-08-12T00:20:22.807Z,18.62
2023-08-12T00:22:50.920Z,18.63
2023-08-12T00:25:18.962Z,18.65
2023-08-12T00:27:46.990Z,18.67
2023-08-12T00:30:15.208Z,18.70
2023-08-12T00:32:43.151Z,18.71
2023-08-12T00:35:11.300Z,18.69
2023-08-12T00:37:39.277Z,18.67
2023-08-12T00:40:08.154Z,18.65
2023-08-12T00:42:36.140Z,18.63
2023-08-12T00:45:05.340Z,18.59
2023-08-12T00:47:33.223Z,18.54
2023-08-12T00:50:01.118Z,18.50
2023-08-12T00:52:29.163Z,18.47
2023-08-12T00:54:57.621Z,18.46
2023-08-12T00:57:25.527Z,18.44
2023-08-12T00:59:53.429Z,18.44
2023-08-12T01:02:21.554Z,18.47
2023-08-12T01:04:49.600Z,18.48
2023-08-12T01:07:18.006Z,18.48
2023-08-12T01:09:45.874Z,18.51
2023-08-12T01:12:15.278Z,18.50
2023-08-12T01:15:10.351Z,18.51
2023-08-12T01:17:39.979Z,18.50
2023-08-12T01:20:14.015Z,18.49
2023-08-12T01:22:42.037Z,18.46
2023-08-12T01:25:10.587Z,18.42
2023-08-12T01:27:39.054Z,18.38
2023-08-12T01:30:07.848Z,18.36
2023-08-12T01:33:03.895Z,18.35
2023-08-12T01:35:33.663Z,18.33
2023-08-12T01:38:01.817Z,18.33
2023-08-12T01:40:29.928Z,18.30
2023-08-12T01:42:57.954Z,18.28
2023-08-12T01:45:25.896Z,18.25
2023-08-12T01:47:53.970Z,18.21
2023-08-12T01:50:23.838Z,18.18
2023-08-12T01:52:51.905Z,18.18
2023-08-12T01:55:20.003Z,18.18
2023-08-12T01:57:48.136Z,18.17
2023-08-12T02:00:16.919Z,18.15
2023-08-12T02:02:48.062Z,18.12
2023-08-12T02:05:16.435Z,18.08
2023-08-12T02:07:44.332Z,18.05
2023-08-12T02:10:12.534Z,18.04
2023-08-12T02:12:40.384Z,18.01
2023-08-12T02:15:08.680Z,18.00
2023-08-12T02:17:36.830Z,17.98
2023-08-12T02:20:05.669Z,17.96
2023-08-12T02:22:33.845Z,17.94
2023-08-12T02:25:01.780Z,17.91
2023-08-12T02:27:30.027Z,17.87
2023-08-12T02:29:58.054Z,17.84
2023-08-12T02:32:25.988Z,17.82
2023-08-12T02:34:53.870Z,17.82
2023-08-12T02:37:21.908Z,17.81
2023-08-12T02:39:49.744Z,17.79
2023-08-12T02:42:17.751Z,17.78
2023-08-12T02:44:45.614Z,17.79
2023-08-12T02:47:13.819Z,17.79
2023-08-12T02:49:42.222Z,17.80
2023-08-12T02:52:10.998Z,17.81
2023-08-12T02:54:38.860Z,17.83
2023-08-12T02:57:07.066Z,17.85
2023-08-12T02:59:35.164Z,17.88
2023-08-12T03:02:04.353Z,17.90
2023-08-12T03:04:32.461Z,17.91
2023-08-12T03:07:00.737Z,17.93
2023-08-12T03:09:28.823Z,17.93
2023-08-12T03:11:57.053Z,17.96
2023-08-12T03:14:25.165Z,17.98
2023-08-12T03:16:53.271Z,17.98
2023-08-12T03:19:21.278Z,18.00
2023-08-12T03:21:49.146Z,17.99
2023-08-12T03:24:17.256Z,18.00
2023-08-12T03:26:45.119Z,18.00
2023-08-12T03:29:12.963Z,17.99
2023-08-12T03:31:41.654Z,17.98
2023-08-12T03:34:09.498Z,17.99
2023-08-12T03:36:37.790Z,18.01
2023-08-12T03:39:06.098Z,18.03
2023-08-12T03:41:34.828Z,18.05
2023-08-12T03:44:05.866Z,18.06
2023-08-12T03:46:34.444Z,18.07
2023-08-12T03:49:02.509Z,18.11
2023-08-12T03:51:31.178Z,18.13
2023-08-12T03:53:59.752Z,18.12
2023-08-12T03:56:28.588Z,18.11
2023-08-12T03:58:56.694Z,18.13
2023-08-12T04:01:24.855Z,18.15
2023-08-12T04:03:52.901Z,18.15
2023-08-12T04:06:21.029Z,18.14
2023-08-12T04:08:49.103Z,18.16
2023-08-12T04:11:17.294Z,18.16
2023-08-12T04:13:45.278Z,18.16
2023-08-12T04:16:14.072Z,18.15
2023-08-12T04:18:42.017Z,18.15
2023-08-12T04:21:10.115Z,18.14
2023-08-12T04:23:40.385Z,18.15
2023-08-12T04:26:08.645Z,18.15
2023-08-12T04:28:36.771Z,18.15
2023-08-12T04:31:08.000Z,18.16
2023-08-12T04:33:36.031Z,18.14
2023-08-12T04:36:05.044Z,18.13
2023-08-12T04:38:33.876Z,18.11
2023-08-12T04:41:02.479Z,18.14
2023-08-12T04:43:30.772Z,18.22
2023-08-12T04:45:59.287Z,18.30
2023-08-12T04:48:27.334Z,18.34
2023-08-12T04:51:01.171Z,18.33
2023-08-12T04:53:29.329Z,18.32
2023-08-12T04:55:58.250Z,18.35
2023-08-12T04:58:26.489Z,18.40
2023-08-12T05:00:54.537Z,18.40
2023-08-12T05:03:23.676Z,18.37
2023-08-12T05:05:53.112Z,18.40
2023-08-12T05:08:22.201Z,18.48
2023-08-12T05:10:50.595Z,18.62
2023-08-12T05:13:18.886Z,18.72
2023-08-12T05:15:48.590Z,18.79
2023-08-12T05:18:17.009Z,18.89
2023-08-12T05:20:47.157Z,19.02
2023-08-12T05:23:16.047Z,19.04
2023-08-12T05:25:44.453Z,19.02
2023-08-12T05:28:12.538Z,19.00
2023-08-12T05:30:40.722Z,19.02
2023-08-12T05:33:08.858Z,19.07
2023-08-12T05:35:37.241Z,19.13
2023-08-12T05:38:05.359Z,19.22
2023-08-12T05:40:33.423Z,19.32
2023-08-12T05:43:01.426Z,19.48
2023-08-12T05:45:29.281Z,19.65
2023-08-12T05:47:57.474Z,19.79
2023-08-12T05:50:25.386Z,19.97
2023-08-12T05:52:53.510Z,20.07
2023-08-12T05:55:21.427Z,20.07
2023-08-12T05:57:49.508Z,20.06
2023-08-12T06:00:17.426Z,20.12
2023-08-12T06:02:45.443Z,20.17
2023-08-12T06:05:13.444Z,20.20
2023-08-12T06:07:41.457Z,20.27
2023-08-12T06:10:09.897Z,20.36
2023-08-12T06:12:37.786Z,20.48
2023-08-12T06:15:06.643Z,20.55
2023-08-12T06:17:34.640Z,20.60
2023-08-12T06:20:03.082Z,20.62
2023-08-12T06:22:30.988Z,20.64
2023-08-12T06:24:59.175Z,20.65
2023-08-12T06:27:27.622Z,20.72
2023-08-12T06:29:55.709Z,20.79
2023-08-12T06:32:23.658Z,20.82
2023-08-12T06:34:51.673Z,20.83
2023-08-12T06:37:19.643Z,20.83
2023-08-12T06:39:47.515Z,20.93
2023-08-12T06:42:15.608Z,21.05
2023-08-12T06:44:44.205Z,21.13
2023-08-12T06:47:12.331Z,21.22
2023-08-12T06:49:40.348Z,21.33
2023-08-12T06:52:08.473Z,21.38
2023-08-12T06:54:36.614Z,21.38
2023-08-12T06:57:04.610Z,21.44
2023-08-12T06:59:32.730Z,21.50
2023-08-12T07:02:01.098Z,21.54
2023-08-12T07:04:29.217Z,21.52
2023-08-12T07:06:57.280Z,21.55
2023-08-12T07:09:25.490Z,21.65
2023-08-12T07:11:53.456Z,21.83
2023-08-12T07:14:21.563Z,21.97
2023-08-12T07:16:49.612Z,22.01
2023-08-12T07:19:17.562Z,22.02
2023-08-12T07:21:45.433Z,22.05
2023-08-12T07:24:13.961Z,22.10
2023-08-12T07:26:42.076Z,22.16
2023-08-12T07:29:10.069Z,22.24
2023-08-12T07:31:38.142Z,22.36
2023-08-12T07:34:06.084Z,22.47
2023-08-12T07:36:34.467Z,22.55
2023-08-12T07:39:02.384Z,22.57
2023-08-12T07:41:30.522Z,22.59
2023-08-12T07:43:58.706Z,22.67
2023-08-12T07:46:26.726Z,22.77
2023-08-12T07:48:55.265Z,22.84
2023-08-12T07:51:23.239Z,22.88
2023-08-12T07:53:51.789Z,22.96
2023-08-12T07:56:19.878Z,23.10
2023-08-12T07:58:49.087Z,23.17
2023-08-12T08:01:16.981Z,23.20
2023-08-12T08:03:44.984Z,23.23
2023-08-12T08:06:13.051Z,23.34
2023-08-12T08:08:41.408Z,23.45
2023-08-12T08:11:09.311Z,23.54
2023-08-12T08:13:37.487Z,23.62
2023-08-12T08:16:05.496Z,23.66
2023-08-12T08:18:33.343Z,23.72
2023-08-12T08:21:05.765Z,23.82
2023-08-12T08:23:33.915Z,23.89
2023-08-12T08:26:01.934Z,23.97
2023-08-12T08:28:30.006Z,24.03
2023-08-12T08:30:57.913Z,24.09
2023-08-12T08:33:28.937Z,24.18
2023-08-12T08:35:57.111Z,24.26
2023-08-12T08:38:24.995Z,24.33
2023-08-12T08:40:53.242Z,24.41
2023-08-12T08:43:23.357Z,24.49
2023-08-12T08:45:53.888Z,24.54
2023-08-12T08:48:22.016Z,24.58
2023-08-12T08:50:50.094Z,24.65
2023-08-12T08:53:18.235Z,24.76
2023-08-12T08:55:46.131Z,24.91
2023-08-12T08:58:15.112Z,24.97
2023-08-12T09:00:49.149Z,25.08
2023-08-12T09:03:16.974Z,25.16
2023-08-12T09:05:45.169Z,25.30
2023-08-12T09:08:14.324Z,25.45
2023-08-12T09:10:42.577Z,25.52
2023-08-12T09:13:10.821Z,25.63
2023-08-12T09:15:38.991Z,25.70
2023-08-12T09:18:07.707Z,25.76
2023-08-12T09:20:35.657Z,25.85
2023-08-12T09:23:03.952Z,25.95
2023-08-12T09:25:32.237Z,26.08
2023-08-12T09:28:00.639Z,26.23
2023-08-12T09:30:35.068Z,26.28
2023-08-12T09:33:05.451Z,26.28
2023-08-12T09:35:37.976Z,26.32
2023-08-12T09:38:07.833Z,26.41
2023-08-12T09:40:36.467Z,26.52
2023-08-12T09:43:04.649Z,26.63
2023-08-12T09:45:34.015Z,26.71
2023-08-12T09:48:02.597Z,26.77
2023-08-12T09:50:30.811Z,26.81
2023-08-12T09:52:58.843Z,26.89
2023-08-12T09:55:26.966Z,26.98
2023-08-12T09:57:55.739Z,27.06
2023-08-12T10:00:24.947Z,27.15
2023-08-12T10:02:53.651Z,27.17
2023-08-12T10:05:40.143Z,27.15
2023-08-12T10:08:08.746Z,27.10
2023-08-12T10:10:37.095Z,26.96
2023-08-12T10:13:08.660Z,26.85
2023-08-12T10:15:37.090Z,26.81
2023-08-12T10:18:09.574Z,26.91
2023-08-12T10:20:39.945Z,27.04
2023-08-12T10:23:08.293Z,27.18
2023-08-12T10:25:36.613Z,27.19
2023-08-12T10:28:05.067Z,27.06
2023-08-12T10:30:33.044Z,27.00
2023-08-12T10:33:01.840Z,26.93
2023-08-12T10:35:46.644Z,26.92
2023-08-12T10:38:15.986Z,26.93
2023-08-12T10:40:44.077Z,26.85
2023-08-12T10:43:13.665Z,26.71
2023-08-12T10:45:53.808Z,26.74
2023-08-12T10:48:26.343Z,26.76
2023-08-12T10:50:59.938Z,26.68
2023-08-12T10:53:33.209Z,26.51
2023-08-12T10:56:05.234Z,26.42
2023-08-12T10:58:37.864Z,26.47
2023-08-12T11:01:12.305Z,26.59
2023-08-12T11:03:43.848Z,26.78
2023-08-12T11:06:12.438Z,26.91
2023-08-12T11:08:53.435Z,26.87
2023-08-12T13:50:35.930Z,30.26
2023-08-12T13:53:04.214Z,30.13
2023-08-12T13:55:32.331Z,30.10
2023-08-12T13:58:00.363Z,30.00
2023-08-12T14:00:28.358Z,29.78
2023-08-12T14:02:56.555Z,29.71
2023-08-12T14:05:25.439Z,29.84
2023-08-12T14:07:53.327Z,30.11
2023-08-12T14:10:21.296Z,30.29
2023-08-12T14:12:52.103Z,30.33
2023-08-12T14:15:21.477Z,30.47
2023-08-12T14:17:49.587Z,30.58
2023-08-12T14:20:17.722Z,30.58
2023-08-12T14:22:45.682Z,30.59
2023-08-12T14:25:14.109Z,30.47
2023-08-12T14:27:41.966Z,30.32
2023-08-12T14:30:10.742Z,30.10
2023-08-12T14:32:38.703Z,29.78
2023-08-12T14:35:07.524Z,29.40
2023-08-12T14:37:35.656Z,28.98
2023-08-12T14:40:04.392Z,28.60
2023-08-12T14:42:32.537Z,28.49
2023-08-12T14:45:00.585Z,28.64
2023-08-12T14:47:28.789Z,28.82
2023-08-12T14:49:56.882Z,29.01
2023-08-12T14:52:25.000Z,29.11
2023-08-12T14:54:53.169Z,28.95
2023-08-12T14:57:20.983Z,28.60
2023-08-12T14:59:52.318Z,28.34
2023-08-12T15:02:21.641Z,28.25
2023-08-12T15:04:50.024Z,28.36
2023-08-12T15:07:19.974Z,28.63
2023-08-12T15:09:48.458Z,28.83
2023-08-12T15:12:16.703Z,28.80
2023-08-12T15:14:44.760Z,28.85
2023-08-12T15:17:13.132Z,29.01
2023-08-12T15:19:41.202Z,29.13
2023-08-12T15:22:09.314Z,29.14
2023-08-12T15:24:37.257Z,29.17
2023-08-12T15:27:07.051Z,29.09
2023-08-12T15:29:35.417Z,28.78
2023-08-12T15:32:04.796Z,28.48
2023-08-12T15:34:32.797Z,28.29
2023-08-12T15:37:00.730Z,28.09
2023-08-12T15:39:28.850Z,27.80
2023-08-12T15:41:56.714Z,27.52
2023-08-12T15:44:24.668Z,27.27
2023-08-12T15:46:52.627Z,27.08
2023-08-12T15:49:20.462Z,26.86
2023-08-12T15:51:48.323Z,26.58
2023-08-12T15:54:16.223Z,26.30
2023-08-12T15:56:44.543Z,26.07
2023-08-12T15:59:13.033Z,25.83
2023-08-12T16:01:40.892Z,25.63
2023-08-12T16:04:08.887Z,25.43
2023-08-12T16:06:36.983Z,25.25
2023-08-12T16:09:18.260Z,25.05
2023-08-12T16:11:48.771Z,24.82
2023-08-12T16:14:16.733Z,24.63
2023-08-12T16:16:44.916Z,24.49
2023-08-12T16:19:13.273Z,24.38
2023-08-12T16:21:41.414Z,24.28
2023-08-12T16:24:09.350Z,24.16
2023-08-12T16:26:37.404Z,24.04
2023-08-12T16:29:05.495Z,23.93
2023-08-12T16:31:33.498Z,23.81
2023-08-12T16:34:01.574Z,23.69
2023-08-12T16:36:29.489Z,23.56
2023-08-12T16:38:57.668Z,23.44
2023-08-12T16:41:25.541Z,23.36
2023-08-12T16:43:53.418Z,23.27
2023-08-12T16:46:23.871Z,23.17
2023-08-12T16:48:52.080Z,23.07
2023-08-12T16:51:20.457Z,22.98
2023-08-12T16:53:48.500Z,22.87
2023-08-12T16:56:16.570Z,22.78
2023-08-12T16:58:44.502Z,22.68
2023-08-12T17:01:12.641Z,22.56
2023-08-12T17:03:40.906Z,22.44
2023-08-12T17:06:08.933Z,22.34
2023-08-12T17:08:36.800Z,22.23
2023-08-12T17:11:08.042Z,22.14
2023-08-12T17:13:36.317Z,22.05
2023-08-12T17:16:05.122Z,21.98
2023-08-12T17:18:33.661Z,21.91
2023-08-12T17:21:02.480Z,21.83
2023-08-12T17:23:30.516Z,21.76
2023-08-12T17:25:58.707Z,21.66
2023-08-12T17:28:26.888Z,21.56
2023-08-12T17:30:55.065Z,21.48
2023-08-12T17:33:23.179Z,21.39
2023-08-12T17:35:51.228Z,21.29
2023-08-12T17:38:25.375Z,21.18
2023-08-12T17:40:53.593Z,21.08
2023-08-12T17:43:21.588Z,20.99
2023-08-12T17:45:49.562Z,20.91
2023-08-12T17:48:17.414Z,20.83
2023-08-12T17:50:45.502Z,20.77
2023-08-12T17:53:13.602Z,20.70
2023-08-12T17:55:41.492Z,20.65
2023-08-12T17:58:09.431Z,20.59
2023-08-12T18:00:41.224Z,20.54
2023-08-12T18:03:09.359Z,20.50
2023-08-12T18:05:37.465Z,20.45
2023-08-12T18:08:05.792Z,20.41
2023-08-12T18:10:34.011Z,20.34
2023-08-12T18:13:02.054Z,20.25
2023-08-12T18:15:30.179Z,20.14
2023-08-12T18:18:03.534Z,20.05
2023-08-12T18:20:37.853Z,19.96
2023-08-12T18:23:06.048Z,19.87
2023-08-12T18:25:33.992Z,19.78
2023-08-12T18:28:02.536Z,19.68
2023-08-12T18:30:31.287Z,19.60
2023-08-12T18:32:59.269Z,19.53
2023-08-12T18:35:27.928Z,19.46
2023-08-12T18:37:56.295Z,19.41
2023-08-12T18:40:24.234Z,19.35
2023-08-12T18:42:52.391Z,19.30
2023-08-12T18:45:20.339Z,19.24
2023-08-12T18:47:48.668Z,19.18
2023-08-12T18:50:16.573Z,19.11
2023-08-12T18:52:44.606Z,19.05
2023-08-12T18:55:12.827Z,18.98
2023-08-12T18:57:40.941Z,18.90
2023-08-12T19:00:09.781Z,18.83
2023-08-12T19:02:37.771Z,18.76
2023-08-12T19:05:06.640Z,18.71
2023-08-12T19:07:34.964Z,18.65
2023-08-12T19:10:02.918Z,18.60
2023-08-12T19:12:31.588Z,18.54
2023-08-12T19:14:59.858Z,18.48
2023-08-12T19:17:28.077Z,18.43
2023-08-12T19:19:56.156Z,18.37
2023-08-12T19:22:24.052Z,18.32
2023-08-12T19:24:52.290Z,18.29
2023-08-12T19:27:20.274Z,18.26
2023-08-12T19:29:48.272Z,18.21
2023-08-12T19:32:16.510Z,18.17
2023-08-12T19:34:45.494Z,18.13
2023-08-12T19:37:13.635Z,18.07
2023-08-12T19:39:41.512Z,18.01
2023-08-12T19:42:09.959Z,17.96
2023-08-12T19:44:38.232Z,17.94
2023-08-12T19:47:06.512Z,17.90
2023-08-12T19:49:34.338Z,17.85
2023-08-12T19:52:02.294Z,17.81
2023-08-12T19:54:30.207Z,17.77
2023-08-12T19:56:58.519Z,17.71
2023-08-12T19:59:26.594Z,17.66
2023-08-12T20:01:54.398Z,17.61
2023-08-12T20:04:24.459Z,17.57
2023-08-12T20:06:52.820Z,17.54
2023-08-12T20:09:20.872Z,17.50
2023-08-12T20:11:48.804Z,17.48
2023-08-12T20:14:16.700Z,17.44
2023-08-12T20:16:44.588Z,17.42
2023-08-12T20:19:15.097Z,17.36
2023-08-12T20:21:43.238Z,17.30
2023-08-12T20:24:11.141Z,17.26
2023-08-12T20:26:38.977Z,17.22
2023-08-12T20:29:09.882Z,17.20
2023-08-12T20:31:37.994Z,17.17
2023-08-12T20:34:06.132Z,17.14
2023-08-12T20:36:34.281Z,17.12
2023-08-12T20:39:02.494Z,17.10
2023-08-12T20:41:30.493Z,17.09
2023-08-12T20:43:58.504Z,17.07
2023-08-12T20:46:26.480Z,17.04
2023-08-12T20:48:54.473Z,17.01
2023-08-12T20:51:22.584Z,16.99
2023-08-12T20:53:50.417Z,16.96
2023-08-12T20:56:18.321Z,16.94
2023-08-12T20:58:46.947Z,16.93
2023-08-12T21:01:15.197Z,16.91
2023-08-12T21:03:43.376Z,16.88
2023-08-12T21:06:11.256Z,16.84
2023-08-12T21:08:39.158Z,16.80
2023-08-12T21:11:07.175Z,16.77
2023-08-12T21:13:35.297Z,16.74
2023-08-12T21:16:03.308Z,16.71
2023-08-12T21:18:31.375Z,16.68
2023-08-12T21:20:59.270Z,16.65
2023-08-12T21:23:27.367Z,16.65
2023-08-12T21:25:55.220Z,16.64
2023-08-12T21:28:23.196Z,16.64
2023-08-12T21:30:51.200Z,16.65
2023-08-12T21:33:19.287Z,16.64
2023-08-12T21:35:47.441Z,16.64
2023-08-12T21:38:15.269Z,16.62
2023-08-12T21:40:43.144Z,16.60
2023-08-12T21:43:11.257Z,16.57
2023-08-12T21:45:39.483Z,16.53
2023-08-12T21:48:07.659Z,16.49
2023-08-12T21:50:35.518Z,16.45
2023-08-12T21:53:03.365Z,16.41
2023-08-12T21:55:31.430Z,16.37
2023-08-12T21:57:59.417Z,16.33
2023-08-12T22:00:27.486Z,16.30
2023-08-12T22:02:56.005Z,16.24
2023-08-12T22:05:24.125Z,16.18
2023-08-12T22:07:52.348Z,16.11
2023-08-12T22:10:20.398Z,16.02
2023-08-12T22:12:48.327Z,15.94
2023-08-12T22:15:16.796Z,15.88
2023-08-12T22:17:45.682Z,15.84
2023-08-12T22:20:15.009Z,15.80
2023-08-12T22:22:43.580Z,15.76
2023-08-12T22:25:11.672Z,15.73
2023-08-12T22:27:39.723Z,15.71
2023-08-12T22:30:09.569Z,15.69
2023-08-12T22:32:37.447Z,15.69
2023-08-12T22:35:09.013Z,15.68
2023-08-12T22:37:37.429Z,15.67
2023-08-12T22:40:06.549Z,15.66
2023-08-12T22:42:34.423Z,15.64
2023-08-12T22:45:02.344Z,15.62
2023-08-12T22:47:30.225Z,15.60
2023-08-12T22:49:58.306Z,15.57
2023-08-12T22:52:26.310Z,15.56
2023-08-12T22:54:54.379Z,15.54
2023-08-12T22:57:22.621Z,15.53
2023-08-12T22:59:50.730Z,15.53
2023-08-12T23:02:18.816Z,15.52
2023-08-12T23:04:47.069Z,15.50
2023-08-12T23:07:15.106Z,15.49
2023-08-12T23:09:43.478Z,15.46
2023-08-12T23:12:11.540Z,15.43
2023-08-12T23:14:39.811Z,15.40
2023-08-12T23:17:07.946Z,15.39
2023-08-12T23:19:36.042Z,15.37
2023-08-12T23:22:04.075Z,15.36
2023-08-12T23:24:32.038Z,15.35
2023-08-12T23:27:00.067Z,15.33
2023-08-12T23:29:28.147Z,15.31
2023-08-12T23:31:56.872Z,15.29
2023-08-12T23:34:24.984Z,15.27
2023-08-12T23:36:53.007Z,15.26
2023-08-12T23:39:22.446Z,15.24
2023-08-12T23:41:50.474Z,15.22
2023-08-12T23:44:18.552Z,15.19
2023-08-12T23:46:46.813Z,15.17
2023-08-12T23:49:14.795Z,15.15
2023-08-12T23:51:42.729Z,15.14
2023-08-12T23:54:10.829Z,15.13
2023-08-12T23:56:38.668Z,15.13
2023-08-12T23:59:06.524Z,15.12
